Time;durP1;ratioP1;P1;durP2;ratioP2;P2;SDS_P1;SDS_P2;PMS_P1;PMS_P2;Temp;Humidity;BMP_temperature;BMP_pressure;BME280_temperature;BME280_humidity;BME280_pressure;Samples;Min_cycle;Max_cycle;Signal;HPM_P1;HPM_P2
2021/03/20 00:01:23;;;;;;;0.60;0.20;;;21.40;36.50;;;;;;5035812;28;20418;-87
2021/03/20 00:03:49;;;;;;;0.40;0.10;;;21.40;36.50;;;;;;5041287;28;20088;-87
2021/03/20 00:06:18;;;;;;;0.43;0.17;;;21.40;36.50;;;;;;5039225;28;20029;-88
2021/03/20 00:08:47;;;;;;;0.30;0.10;;;21.40;36.50;;;;;;5025713;28;20397;-88
2021/03/20 00:11:13;;;;;;;0.52;0.10;;;21.40;36.60;;;;;;5044567;28;20036;-88
2021/03/20 00:13:40;;;;;;;1.02;0.20;;;21.30;36.50;;;;;;5031459;28;20452;-88
2021/03/20 00:16:06;;;;;;;1.80;0.10;;;21.30;36.60;;;;;;5064580;28;20358;-87
2021/03/20 00:18:32;;;;;;;0.60;0.10;;;21.30;36.50;;;;;;5034594;28;20082;-87
2021/03/20 00:20:58;;;;;;;0.50;0.20;;;21.30;36.60;;;;;;5031666;28;20489;-89
2021/03/20 00:23:24;;;;;;;0.55;0.17;;;21.20;36.60;;;;;;5028209;28;20060;-87
2021/03/20 00:25:50;;;;;;;0.75;0.17;;;21.20;36.50;;;;;;5025491;28;20463;-87
2021/03/20 00:28:23;;;;;;;0.80;0.20;;;21.20;36.60;;;;;;5037097;28;20124;-88
2021/03/20 00:30:56;;;;;;;0.77;0.10;;;21.20;36.60;;;;;;5043181;28;20051;-87
2021/03/20 00:33:22;;;;;;;0.20;0.10;;;21.20;36.60;;;;;;5027532;28;20020;-87
2021/03/20 00:35:48;;;;;;;0.30;0.10;;;21.20;36.60;;;;;;5022691;28;20040;-87
2021/03/20 00:38:15;;;;;;;1.60;0.10;;;21.10;36.60;;;;;;5029151;28;20380;-87
2021/03/20 00:40:41;;;;;;;0.60;0.20;;;21.10;36.60;;;;;;5064276;28;20089;-87
2021/03/20 00:43:07;;;;;;;0.30;0.10;;;21.10;36.60;;;;;;5041174;28;20179;-86
2021/03/20 00:45:33;;;;;;;0.52;0.10;;;21.10;36.60;;;;;;5028902;28;20032;-87
2021/03/20 00:48:21;;;;;;;0.28;0.10;;;21.10;36.60;;;;;;5022644;28;20485;-87
2021/03/20 00:50:48;;;;;;;0.20;0.10;;;21.10;36.60;;;;;;5026076;28;20079;-87
2021/03/20 00:53:13;;;;;;;0.35;0.10;;;21.10;36.60;;;;;;5045802;28;20503;-86
2021/03/20 00:55:40;;;;;;;0.40;0.10;;;21.10;36.60;;;;;;5026741;28;20021;-86
2021/03/20 00:58:41;;;;;;;0.30;0.10;;;21.00;36.60;;;;;;5025965;28;20053;-85
2021/03/20 01:01:17;;;;;;;0.45;0.10;;;21.00;36.60;;;;;;5027900;28;20278;-85
2021/03/20 01:03:43;;;;;;;0.35;0.03;;;21.00;36.60;;;;;;5043224;28;20028;-85
2021/03/20 01:06:25;;;;;;;0.20;0.10;;;21.00;36.70;;;;;;5043026;28;20028;-85
2021/03/20 01:08:52;;;;;;;0.10;0.00;;;20.90;36.60;;;;;;5028643;28;20061;-85
2021/03/20 01:11:18;;;;;;;1.48;0.00;;;20.90;36.60;;;;;;5044547;28;20111;-85
2021/03/20 01:13:44;;;;;;;0.73;0.10;;;20.90;36.70;;;;;;5022552;28;20029;-85
2021/03/20 01:16:10;;;;;;;0.60;0.03;;;20.90;36.70;;;;;;5043813;28;20147;-86
2021/03/20 01:18:37;;;;;;;1.23;0.28;;;20.90;36.70;;;;;;5024618;28;20400;-86
2021/03/20 01:21:04;;;;;;;0.60;0.10;;;20.90;36.70;;;;;;5026093;28;20719;-86
2021/03/20 01:23:30;;;;;;;0.30;0.10;;;20.90;36.70;;;;;;5042414;28;20039;-85
2021/03/20 01:25:55;;;;;;;1.08;0.20;;;20.80;36.70;;;;;;5026457;28;20029;-86
2021/03/20 01:28:30;;;;;;;0.22;0.10;;;20.80;36.70;;;;;;5023670;28;20029;-86
2021/03/20 01:30:56;;;;;;;0.45;0.10;;;20.80;36.70;;;;;;5043574;28;20036;-85
2021/03/20 01:33:22;;;;;;;0.50;0.10;;;20.80;36.70;;;;;;5026688;28;20035;-86
2021/03/20 01:35:48;;;;;;;0.17;0.00;;;20.80;36.70;;;;;;5040866;28;20032;-87
2021/03/20 01:38:14;;;;;;;0.30;0.10;;;20.80;36.80;;;;;;5022639;28;20024;-86
2021/03/20 01:40:44;;;;;;;0.30;0.00;;;20.80;36.70;;;;;;5045074;28;20027;-86
2021/03/20 01:43:19;;;;;;;0.15;0.05;;;20.80;36.70;;;;;;5027727;28;20348;-85
2021/03/20 01:45:45;;;;;;;0.20;0.00;;;20.70;36.70;;;;;;5025108;28;20021;-86
2021/03/20 01:48:20;;;;;;;0.30;0.10;;;20.70;36.70;;;;;;5026210;28;20024;-86
2021/03/20 01:50:54;;;;;;;1.05;0.13;;;20.70;36.70;;;;;;5053961;28;20025;-86
2021/03/20 01:53:29;;;;;;;0.30;0.10;;;20.70;36.70;;;;;;5050043;28;20036;-86
2021/03/20 01:55:55;;;;;;;0.40;0.10;;;20.70;36.70;;;;;;5040400;28;20028;-86
2021/03/20 01:58:21;;;;;;;1.85;0.10;;;20.70;36.70;;;;;;5045723;28;20401;-86
2021/03/20 02:00:48;;;;;;;0.65;0.00;;;20.70;36.60;;;;;;5043235;28;20089;-86
2021/03/20 02:03:20;;;;;;;0.30;0.00;;;20.60;36.60;;;;;;5028687;28;20025;-86
2021/03/20 02:05:46;;;;;;;0.40;0.08;;;20.70;36.60;;;;;;5024485;28;20027;-86
2021/03/20 02:08:15;;;;;;;0.43;0.10;;;20.60;36.60;;;;;;5036917;28;20029;-86
2021/03/20 02:10:43;;;;;;;0.10;0.00;;;20.60;36.60;;;;;;5023494;28;20473;-86
2021/03/20 02:13:39;;;;;;;0.55;0.05;;;20.60;36.60;;;;;;5021839;28;20056;-86
2021/03/20 02:16:24;;;;;;;0.68;0.10;;;20.60;36.50;;;;;;5010947;28;20025;-85
2021/03/20 02:19:27;;;;;;;0.10;0.00;;;20.60;36.50;;;;;;5050643;28;20033;-86
2021/03/20 02:22:00;;;;;;;0.40;0.10;;;20.60;36.60;;;;;;5038534;28;20025;-86
2021/03/20 02:25:02;;;;;;;0.20;0.00;;;20.60;36.60;;;;;;5053165;28;20059;-86
2021/03/20 02:27:47;;;;;;;0.28;0.00;;;20.50;36.50;;;;;;5032413;28;20068;-86
2021/03/20 02:30:37;;;;;;;0.35;0.00;;;20.50;36.60;;;;;;5028804;28;20024;-86
2021/03/20 02:33:42;;;;;;;1.10;0.00;;;20.50;36.60;;;;;;5045745;28;20041;-87
2021/03/20 02:36:30;;;;;;;0.20;0.00;;;20.50;36.50;;;;;;5000830;28;20051;-87
2021/03/20 02:39:22;;;;;;;0.03;0.00;;;20.50;36.50;;;;;;5026327;28;20037;-85
2021/03/20 02:42:14;;;;;;;0.65;0.00;;;20.40;36.50;;;;;;5026120;28;20064;-86
2021/03/20 02:44:50;;;;;;;2.65;0.10;;;20.50;36.50;;;;;;5023032;28;20052;-86
2021/03/20 02:47:25;;;;;;;0.20;0.05;;;20.40;36.50;;;;;;5039507;28;20025;-85
2021/03/20 02:50:37;;;;;;;0.20;0.00;;;20.40;36.50;;;;;;5028066;28;20057;-85
2021/03/20 02:53:19;;;;;;;0.10;0.00;;;20.40;36.50;;;;;;4987503;28;20576;-85
2021/03/20 02:56:07;;;;;;;0.43;0.00;;;20.40;36.50;;;;;;5024360;28;20029;-85
2021/03/20 02:58:52;;;;;;;0.10;0.00;;;20.40;36.50;;;;;;5039893;28;21251;-85
2021/03/20 03:01:22;;;;;;;0.25;0.00;;;20.40;36.50;;;;;;5025943;28;20032;-86
2021/03/20 03:03:49;;;;;;;0.10;0.00;;;20.40;36.50;;;;;;5059219;28;20195;-86
2021/03/20 03:06:24;;;;;;;0.28;0.00;;;20.40;36.50;;;;;;5043097;28;20044;-86
2021/03/20 03:08:58;;;;;;;0.43;0.00;;;20.40;36.50;;;;;;5049215;28;20143;-86
2021/03/20 03:12:03;;;;;;;0.25;0.00;;;20.40;36.50;;;;;;5028727;28;20488;-86
2021/03/20 03:14:41;;;;;;;0.45;0.10;;;20.40;36.50;;;;;;5027959;28;20024;-86
2021/03/20 03:17:08;;;;;;;0.10;0.00;;;20.30;36.40;;;;;;5032304;28;20059;-86
2021/03/20 03:19:46;;;;;;;0.35;0.00;;;20.30;36.40;;;;;;5049634;28;20095;-86
2021/03/20 03:22:24;;;;;;;0.20;0.10;;;20.30;36.40;;;;;;5029235;28;20032;-86
2021/03/20 03:24:57;;;;;;;0.20;0.00;;;20.30;36.40;;;;;;5047847;28;20147;-86
2021/03/20 03:27:26;;;;;;;0.95;0.10;;;20.30;36.40;;;;;;5030107;28;20017;-86
2021/03/20 03:29:52;;;;;;;0.38;0.10;;;20.30;36.40;;;;;;5031101;28;20032;-86
2021/03/20 03:32:35;;;;;;;0.20;0.00;;;20.20;36.40;;;;;;5032873;28;20037;-86
2021/03/20 03:35:20;;;;;;;0.20;0.00;;;20.20;36.40;;;;;;5062582;28;20106;-87
2021/03/20 03:37:57;;;;;;;0.10;0.00;;;20.20;36.40;;;;;;5047655;28;20056;-87
2021/03/20 03:40:35;;;;;;;0.20;0.00;;;20.20;36.40;;;;;;5046976;28;20033;-86
2021/03/20 03:43:03;;;;;;;0.20;0.03;;;20.20;36.40;;;;;;5043078;28;20128;-86
2021/03/20 03:45:29;;;;;;;0.10;0.00;;;20.20;36.40;;;;;;5027604;28;20036;-86
2021/03/20 03:47:57;;;;;;;0.30;0.10;;;20.20;36.40;;;;;;5061050;28;20029;-86
2021/03/20 03:50:28;;;;;;;0.30;0.10;;;20.20;36.40;;;;;;5031818;28;20438;-86
2021/03/20 03:52:54;;;;;;;0.10;0.00;;;20.20;36.40;;;;;;5030347;28;20628;-87
2021/03/20 03:55:21;;;;;;;0.30;0.10;;;20.20;36.40;;;;;;5027039;28;20028;-86
2021/03/20 03:58:15;;;;;;;0.10;0.00;;;20.10;36.40;;;;;;5046788;28;20044;-88
2021/03/20 04:00:49;;;;;;;0.10;0.00;;;20.20;36.40;;;;;;4996803;28;20028;-86
2021/03/20 04:03:27;;;;;;;0.22;0.00;;;20.10;36.40;;;;;;5028941;28;20119;-89
2021/03/20 04:05:55;;;;;;;0.17;0.00;;;20.10;36.40;;;;;;5028931;28;20032;-86
2021/03/20 04:08:47;;;;;;;0.43;0.10;;;20.10;36.30;;;;;;5045918;28;20531;-86
2021/03/20 04:11:38;;;;;;;0.63;0.00;;;20.10;36.40;;;;;;5066218;28;20052;-86
2021/03/20 04:14:18;;;;;;;0.10;0.00;;;20.10;36.30;;;;;;5048093;28;20068;-84
2021/03/20 04:17:00;;;;;;;0.10;0.00;;;20.10;36.40;;;;;;5031495;28;20503;-86
2021/03/20 04:19:44;;;;;;;0.10;0.00;;;20.10;36.40;;;;;;5054052;28;20021;-86
2021/03/20 04:22:24;;;;;;;0.30;0.00;;;20.10;36.40;;;;;;5060822;28;20516;-86
2021/03/20 04:24:55;;;;;;;0.20;0.00;;;20.10;36.40;;;;;;5029218;28;20025;-86
2021/03/20 04:27:28;;;;;;;0.50;0.10;;;20.00;36.30;;;;;;5028583;28;20116;-86
2021/03/20 04:30:23;;;;;;;0.50;0.00;;;20.00;36.30;;;;;;5032240;28;20036;-86
2021/03/20 04:33:12;;;;;;;0.32;0.00;;;20.00;36.20;;;;;;5046462;28;20029;-86
2021/03/20 04:36:18;;;;;;;0.20;0.00;;;20.00;36.20;;;;;;5031535;28;20028;-86
2021/03/20 04:38:45;;;;;;;0.17;0.00;;;20.00;36.30;;;;;;5062804;28;20035;-87
2021/03/20 04:41:12;;;;;;;0.20;0.00;;;20.00;36.30;;;;;;5039018;28;20028;-86
2021/03/20 04:43:39;;;;;;;0.10;0.00;;;20.00;36.20;;;;;;5054412;28;20113;-88
2021/03/20 04:46:25;;;;;;;0.20;0.00;;;19.90;36.20;;;;;;5037880;28;20049;-89
2021/03/20 04:49:16;;;;;;;0.10;0.00;;;20.00;36.20;;;;;;5029951;28;20042;-87
2021/03/20 04:51:49;;;;;;;0.33;0.07;;;19.90;36.20;;;;;;5037242;28;20025;-85
2021/03/20 04:54:19;;;;;;;1.17;0.00;;;20.00;36.30;;;;;;5034304;28;20059;-85
2021/03/20 04:56:52;;;;;;;0.15;0.00;;;19.90;36.30;;;;;;5043700;28;20033;-85
2021/03/20 04:59:38;;;;;;;0.20;0.10;;;19.90;36.30;;;;;;5047646;28;20025;-85
2021/03/20 05:02:30;;;;;;;0.65;0.00;;;19.90;36.30;;;;;;5045973;28;20116;-85
2021/03/20 05:05:05;;;;;;;0.15;0.00;;;19.90;36.30;;;;;;5035184;28;20032;-85
2021/03/20 05:07:32;;;;;;;1.75;0.00;;;19.90;36.30;;;;;;5050155;28;20184;-85
2021/03/20 05:10:00;;;;;;;0.20;0.00;;;19.90;36.30;;;;;;5032404;28;20085;-85
2021/03/20 05:12:29;;;;;;;0.20;0.00;;;19.90;36.30;;;;;;5036456;28;20033;-86
2021/03/20 05:15:21;;;;;;;0.32;0.00;;;19.80;36.20;;;;;;5041804;28;20032;-85
2021/03/20 05:17:46;;;;;;;0.73;0.00;;;19.90;36.30;;;;;;5024096;28;20112;-86
2021/03/20 05:20:12;;;;;;;0.32;0.00;;;19.80;36.30;;;;;;5043731;28;20302;-86
2021/03/20 05:22:37;;;;;;;0.10;0.00;;;19.80;36.30;;;;;;5043381;28;20032;-88
2021/03/20 05:25:04;;;;;;;0.20;0.00;;;19.80;36.20;;;;;;5045843;28;20113;-87
2021/03/20 05:27:33;;;;;;;0.98;0.10;;;19.80;36.30;;;;;;5040223;28;20021;-86
2021/03/20 05:29:59;;;;;;;0.10;0.00;;;19.80;36.30;;;;;;5043707;28;20028;-87
2021/03/20 05:32:31;;;;;;;0.35;0.00;;;19.80;36.30;;;;;;5032478;28;20516;-86
2021/03/20 05:34:58;;;;;;;0.10;0.00;;;19.80;36.20;;;;;;5042866;28;20068;-86
2021/03/20 05:37:30;;;;;;;0.10;0.00;;;19.70;36.20;;;;;;5021952;28;20028;-87
2021/03/20 05:39:57;;;;;;;0.25;0.10;;;19.70;36.20;;;;;;5031277;28;20029;-87
2021/03/20 05:42:41;;;;;;;0.20;0.00;;;19.70;36.30;;;;;;5025610;28;20025;-87
2021/03/20 05:45:44;;;;;;;0.10;0.00;;;19.70;36.30;;;;;;5031121;28;20031;-86
2021/03/20 05:48:16;;;;;;;0.13;0.00;;;19.70;36.20;;;;;;5027138;28;20408;-87
2021/03/20 05:51:01;;;;;;;1.88;0.10;;;19.70;36.20;;;;;;5042260;28;20050;-87
2021/03/20 05:53:48;;;;;;;0.10;0.00;;;19.70;36.20;;;;;;5027523;28;20039;-86
2021/03/20 05:56:36;;;;;;;0.65;0.00;;;19.70;36.20;;;;;;5048732;28;20028;-88
2021/03/20 05:59:06;;;;;;;0.30;0.03;;;19.70;36.20;;;;;;5001198;28;20037;-87
2021/03/20 06:02:30;;;;;;;0.10;0.00;;;19.70;36.20;;;;;;5020252;28;20445;-86
2021/03/20 06:05:27;;;;;;;0.20;0.00;;;19.70;36.20;;;;;;4972462;28;20282;-87
2021/03/20 06:08:05;;;;;;;0.20;0.00;;;19.70;36.20;;;;;;4953344;28;20041;-87
2021/03/20 06:11:00;;;;;;;0.17;0.00;;;19.60;36.20;;;;;;5015839;28;20029;-86
2021/03/20 06:13:55;;;;;;;0.32;0.00;;;19.60;36.20;;;;;;5041167;28;20041;-87
2021/03/20 06:16:32;;;;;;;0.25;0.10;;;19.70;36.20;;;;;;5033433;28;20078;-87
2021/03/20 06:19:06;;;;;;;0.55;0.08;;;19.60;36.20;;;;;;5033198;28;20095;-86
2021/03/20 06:21:54;;;;;;;0.35;0.13;;;19.60;36.20;;;;;;5051266;28;20159;-87
2021/03/20 06:24:50;;;;;;;0.20;0.00;;;19.60;36.10;;;;;;5051493;28;20476;-86
2021/03/20 06:27:23;;;;;;;0.30;0.10;;;19.60;36.10;;;;;;5029664;28;20021;-87
2021/03/20 06:30:31;;;;;;;0.13;0.00;;;19.60;36.10;;;;;;5044746;28;20021;-86
2021/03/20 06:33:04;;;;;;;0.25;0.00;;;19.60;36.10;;;;;;5005723;28;20036;-86
2021/03/20 06:35:48;;;;;;;0.15;0.05;;;19.60;36.20;;;;;;5026989;28;20030;-87
2021/03/20 06:38:29;;;;;;;0.40;0.00;;;19.60;36.10;;;;;;5040904;28;20036;-86
2021/03/20 06:41:13;;;;;;;0.73;0.17;;;19.60;36.10;;;;;;5024558;28;20037;-86
2021/03/20 06:43:46;;;;;;;0.40;0.05;;;19.50;36.10;;;;;;5021163;28;20021;-87
2021/03/20 06:46:15;;;;;;;0.20;0.00;;;19.60;36.20;;;;;;5024787;28;20021;-86
2021/03/20 06:48:42;;;;;;;0.40;0.00;;;19.60;36.10;;;;;;5039718;28;20542;-87
2021/03/20 06:51:08;;;;;;;0.30;0.00;;;19.60;36.20;;;;;;5024396;28;20024;-86
2021/03/20 06:54:02;;;;;;;0.20;0.00;;;19.60;36.20;;;;;;5026406;28;20162;-86
2021/03/20 06:56:35;;;;;;;0.10;0.00;;;19.60;36.20;;;;;;5019484;28;20021;-86
2021/03/20 06:59:08;;;;;;;0.15;0.00;;;19.60;36.20;;;;;;5029851;28;20096;-86
2021/03/20 07:01:52;;;;;;;1.23;0.00;;;19.60;36.20;;;;;;5048524;28;20192;-86
2021/03/20 07:04:59;;;;;;;0.38;0.00;;;19.50;36.10;;;;;;5051340;28;20032;-87
2021/03/20 07:07:56;;;;;;;0.60;0.05;;;19.60;36.70;;;;;;5046199;28;20102;-86
2021/03/20 07:10:48;;;;;;;0.20;0.10;;;19.50;36.10;;;;;;5041538;28;20020;-86
2021/03/20 07:13:29;;;;;;;0.22;0.08;;;19.50;36.20;;;;;;5060533;28;20087;-86
2021/03/20 07:16:03;;;;;;;0.75;0.00;;;19.50;36.10;;;;;;5021983;28;20036;-86
2021/03/20 07:18:58;;;;;;;0.60;0.00;;;19.50;36.10;;;;;;5024859;28;20647;-85
2021/03/20 07:21:34;;;;;;;0.95;0.00;;;19.50;36.10;;;;;;5038578;28;20038;-87
2021/03/20 07:24:12;;;;;;;0.10;0.00;;;19.60;36.10;;;;;;5026563;28;20037;-85
2021/03/20 07:26:57;;;;;;;0.50;0.10;;;19.50;36.10;;;;;;5041135;28;20539;-86
2021/03/20 07:29:43;;;;;;;1.15;0.10;;;19.50;36.10;;;;;;5022389;28;20031;-86
2021/03/20 07:32:13;;;;;;;0.30;0.00;;;19.50;36.10;;;;;;5039617;28;20025;-87
2021/03/20 07:34:39;;;;;;;0.77;0.28;;;19.50;36.20;;;;;;5028737;28;20117;-86
2021/03/20 07:37:24;;;;;;;0.70;0.10;;;19.50;36.40;;;;;;5022770;28;20102;-84
2021/03/20 07:39:57;;;;;;;0.28;0.05;;;19.50;36.40;;;;;;5052513;28;20052;-83
2021/03/20 07:42:27;;;;;;;0.75;0.10;;;19.50;36.30;;;;;;5067178;28;20040;-83
2021/03/20 07:44:55;;;;;;;1.75;0.10;;;19.50;36.30;;;;;;5066540;28;20104;-83
2021/03/20 07:47:24;;;;;;;0.73;0.10;;;19.50;36.30;;;;;;5067692;28;20345;-85
2021/03/20 07:50:22;;;;;;;1.85;0.10;;;19.50;36.30;;;;;;5029150;28;20592;-85
2021/03/20 07:53:16;;;;;;;0.30;0.10;;;19.50;36.30;;;;;;5045684;28;20056;-84
2021/03/20 07:56:21;;;;;;;0.75;0.20;;;19.60;36.30;;;;;;5028047;28;20060;-85
2021/03/20 07:59:00;;;;;;;0.50;0.10;;;19.50;36.20;;;;;;5045513;28;20037;-86
2021/03/20 08:01:30;;;;;;;0.40;0.10;;;19.60;36.20;;;;;;5045463;28;20416;-86
2021/03/20 08:04:07;;;;;;;0.40;0.10;;;19.50;36.30;;;;;;5062779;28;20033;-86
2021/03/20 08:06:39;;;;;;;0.20;0.03;;;19.50;36.30;;;;;;5030800;28;20025;-85
2021/03/20 08:09:09;;;;;;;0.43;0.10;;;19.60;36.30;;;;;;5029347;28;20490;-86
2021/03/20 08:11:34;;;;;;;0.60;0.10;;;19.60;36.20;;;;;;5046771;28;20039;-86
2021/03/20 08:14:09;;;;;;;0.90;0.30;;;19.50;36.20;;;;;;5025397;28;20020;-86
2021/03/20 08:16:35;;;;;;;0.80;0.10;;;19.50;36.20;;;;;;5062090;28;20021;-85
2021/03/20 08:19:00;;;;;;;1.88;0.10;;;19.60;36.20;;;;;;5046310;28;20039;-85
2021/03/20 08:21:26;;;;;;;0.50;0.20;;;19.60;36.20;;;;;;5042033;28;20096;-85
2021/03/20 08:24:22;;;;;;;0.40;0.10;;;19.60;36.10;;;;;;5025038;28;20100;-86
2021/03/20 08:26:57;;;;;;;1.75;0.20;;;19.60;36.10;;;;;;5063358;28;20017;-85
2021/03/20 08:29:53;;;;;;;1.58;0.20;;;19.60;36.10;;;;;;5059337;28;20389;-86
2021/03/20 08:32:37;;;;;;;1.13;0.10;;;19.60;36.00;;;;;;5043635;28;20365;-85
2021/03/20 08:35:11;;;;;;;0.77;0.20;;;19.60;36.00;;;;;;5027721;28;20036;-85
2021/03/20 08:38:11;;;;;;;0.90;0.20;;;19.60;35.90;;;;;;5027479;28;20028;-85
2021/03/20 08:40:57;;;;;;;0.43;0.20;;;19.60;35.90;;;;;;5031796;28;20024;-85
2021/03/20 08:44:11;;;;;;;0.68;0.20;;;19.60;35.90;;;;;;5027520;28;20032;-86
2021/03/20 08:46:55;;;;;;;0.98;0.20;;;19.60;35.90;;;;;;4968786;28;20033;-85
2021/03/20 08:49:30;;;;;;;1.95;0.43;;;19.60;35.90;;;;;;5046168;28;20040;-85
2021/03/20 08:52:13;;;;;;;1.13;0.28;;;19.70;35.90;;;;;;5027207;28;20046;-85
2021/03/20 08:55:20;;;;;;;1.42;0.20;;;19.60;35.80;;;;;;5026983;28;20033;-85
2021/03/20 08:57:52;;;;;;;0.82;0.30;;;19.70;35.80;;;;;;5027865;28;20039;-86
2021/03/20 09:00:32;;;;;;;1.33;0.35;;;19.70;35.80;;;;;;5042397;28;20041;-86
2021/03/20 09:03:05;;;;;;;1.40;0.40;;;19.70;35.80;;;;;;5059692;28;20094;-85
2021/03/20 09:05:34;;;;;;;0.80;0.45;;;19.70;35.80;;;;;;5041020;28;20104;-85
2021/03/20 09:08:08;;;;;;;0.95;0.30;;;19.70;35.80;;;;;;5043897;28;20028;-86
2021/03/20 09:10:44;;;;;;;1.67;0.60;;;19.70;35.80;;;;;;5027595;28;20524;-86
2021/03/20 09:13:26;;;;;;;1.30;0.40;;;19.70;35.80;;;;;;5057302;28;20127;-86
2021/03/20 09:16:25;;;;;;;1.08;0.40;;;19.70;35.70;;;;;;5065176;28;20103;-86
2021/03/20 09:18:51;;;;;;;1.15;0.47;;;19.70;35.70;;;;;;5044758;28;20101;-86
2021/03/20 09:21:19;;;;;;;1.10;0.50;;;19.70;35.70;;;;;;5045636;28;20035;-86
2021/03/20 09:23:49;;;;;;;1.33;0.32;;;19.70;35.70;;;;;;5043206;28;20039;-86
2021/03/20 09:26:39;;;;;;;0.80;0.38;;;19.70;35.70;;;;;;5030375;28;20401;-86
2021/03/20 09:29:25;;;;;;;1.50;0.50;;;19.70;35.70;;;;;;5043526;28;20032;-85
2021/03/20 09:31:54;;;;;;;1.63;0.45;;;19.70;35.60;;;;;;5041420;28;20029;-86
2021/03/20 09:34:38;;;;;;;1.83;0.63;;;19.80;35.70;;;;;;5041290;28;20032;-86
2021/03/20 09:37:18;;;;;;;0.88;0.50;;;19.70;35.60;;;;;;5044575;28;20033;-86
2021/03/20 09:39:48;;;;;;;1.63;0.68;;;19.80;35.60;;;;;;5045399;28;20036;-86
2021/03/20 09:42:24;;;;;;;1.60;0.60;;;19.80;35.70;;;;;;5045143;28;20029;-85
2021/03/20 09:45:02;;;;;;;1.20;0.70;;;19.80;35.60;;;;;;5026882;28;20028;-86
2021/03/20 09:47:31;;;;;;;1.48;0.50;;;19.80;35.60;;;;;;5025101;28;20123;-86
2021/03/20 09:50:06;;;;;;;1.85;0.40;;;19.80;35.60;;;;;;5030376;28;20056;-86
2021/03/20 09:52:38;;;;;;;0.77;0.40;;;19.80;35.60;;;;;;5039637;28;20037;-87
2021/03/20 09:55:29;;;;;;;1.38;0.55;;;19.90;35.70;;;;;;5040027;28;20040;-83
2021/03/20 09:57:57;;;;;;;1.30;0.70;;;20.00;35.50;;;;;;5029610;28;20036;-83
2021/03/20 10:00:45;;;;;;;1.58;0.70;;;20.10;35.50;;;;;;5041167;28;20029;-83
2021/03/20 10:03:31;;;;;;;2.85;0.70;;;20.40;35.50;;;;;;5028268;28;20065;-83
2021/03/20 10:06:25;;;;;;;1.42;0.50;;;20.40;35.40;;;;;;5023821;28;20026;-85
2021/03/20 10:09:06;;;;;;;4.00;0.70;;;20.60;35.30;;;;;;5051001;28;20020;-84
2021/03/20 10:12:04;;;;;;;1.48;0.70;;;20.70;35.30;;;;;;5038606;28;20025;-85
2021/03/20 10:14:49;;;;;;;5.07;0.95;;;20.80;35.30;;;;;;5055570;28;20032;-84
2021/03/20 10:17:28;;;;;;;1.80;0.55;;;20.80;35.20;;;;;;5036666;28;20029;-85
2021/03/20 10:20:06;;;;;;;1.88;1.02;;;20.90;35.20;;;;;;5036533;28;20027;-85
2021/03/20 10:22:34;;;;;;;4.53;1.17;;;20.90;35.20;;;;;;5035397;28;20059;-86
2021/03/20 10:25:01;;;;;;;2.08;0.60;;;21.00;35.20;;;;;;5061784;28;20030;-86
2021/03/20 10:27:37;;;;;;;1.45;0.50;;;21.00;35.20;;;;;;5062852;28;20528;-85
2021/03/20 10:30:21;;;;;;;3.60;0.60;;;21.00;35.30;;;;;;5028642;28;20035;-85
2021/03/20 10:33:04;;;;;;;3.53;0.70;;;21.00;35.30;;;;;;5054095;28;20045;-85
2021/03/20 10:35:33;;;;;;;1.23;0.30;;;21.00;35.30;;;;;;5035788;28;20145;-85
2021/03/20 10:38:15;;;;;;;1.77;0.40;;;21.00;35.40;;;;;;5049308;28;20033;-85
2021/03/20 10:40:41;;;;;;;1.08;0.55;;;21.00;35.40;;;;;;5030814;28;20017;-85
2021/03/20 10:43:13;;;;;;;1.70;0.63;;;21.00;35.40;;;;;;5060309;28;20029;-85
2021/03/20 10:45:41;;;;;;;1.27;0.60;;;21.00;35.50;;;;;;5029928;28;20021;-85
2021/03/20 10:48:20;;;;;;;0.98;0.40;;;21.00;35.50;;;;;;5047363;28;20020;-85
2021/03/20 10:50:48;;;;;;;1.55;0.60;;;21.00;35.50;;;;;;5023014;28;20049;-85
2021/03/20 10:53:22;;;;;;;1.45;0.45;;;21.00;35.50;;;;;;5028748;28;20036;-85
2021/03/20 10:55:54;;;;;;;2.20;0.50;;;21.00;35.50;;;;;;5021866;28;20032;-85
2021/03/20 10:58:52;;;;;;;1.77;0.80;;;21.00;35.50;;;;;;5025267;28;20040;-85
2021/03/20 11:01:35;;;;;;;0.90;0.40;;;21.00;35.60;;;;;;5002460;28;20129;-85
2021/03/20 11:04:02;;;;;;;1.38;0.30;;;21.00;35.60;;;;;;5028256;28;20488;-85
2021/03/20 11:06:28;;;;;;;1.50;0.40;;;21.00;35.60;;;;;;5035310;28;20029;-85
2021/03/20 11:09:13;;;;;;;1.27;0.70;;;21.00;35.60;;;;;;5021333;28;20029;-85
2021/03/20 11:11:41;;;;;;;0.98;0.30;;;21.00;35.60;;;;;;5038048;28;20579;-85
2021/03/20 11:14:09;;;;;;;1.55;0.35;;;21.00;35.70;;;;;;5015088;28;20039;-84
2021/03/20 11:16:43;;;;;;;1.25;0.38;;;21.00;35.70;;;;;;5060742;28;20159;-85
2021/03/20 11:19:20;;;;;;;1.08;0.32;;;21.00;35.70;;;;;;5039043;28;20509;-85
2021/03/20 11:21:51;;;;;;;1.23;0.30;;;21.00;35.70;;;;;;5042783;28;20102;-85
2021/03/20 11:24:32;;;;;;;2.30;0.43;;;21.00;35.70;;;;;;5034484;28;20032;-86
2021/03/20 11:27:11;;;;;;;;;;;21.00;35.70;;;;;;5023751;28;20044;-85
2021/03/20 11:29:37;;;;;;;1.40;0.20;;;21.00;35.70;;;;;;5047828;28;19915;-85
2021/03/20 11:32:07;;;;;;;1.30;0.43;;;21.00;35.70;;;;;;5042400;28;20024;-85
2021/03/20 11:34:41;;;;;;;1.52;0.40;;;21.00;35.70;;;;;;5042528;28;20135;-85
2021/03/20 11:37:11;;;;;;;1.45;0.40;;;21.00;35.70;;;;;;5027724;28;20024;-85
2021/03/20 11:39:37;;;;;;;1.05;0.20;;;21.00;35.70;;;;;;5042593;28;20025;-85
2021/03/20 11:42:07;;;;;;;1.45;0.40;;;21.00;35.70;;;;;;5043665;28;20028;-85
2021/03/20 11:44:40;;;;;;;0.70;0.25;;;21.00;35.70;;;;;;5024192;28;20757;-85
2021/03/20 11:47:06;;;;;;;1.50;0.20;;;21.00;35.70;;;;;;5028050;28;20547;-85
2021/03/20 11:49:50;;;;;;;1.65;0.40;;;21.00;35.70;;;;;;5037873;28;20013;-85
2021/03/20 11:52:19;;;;;;;0.68;0.25;;;21.00;35.70;;;;;;5043954;28;20086;-84
2021/03/20 11:54:46;;;;;;;1.25;0.20;;;21.00;35.70;;;;;;5064128;28;20096;-85
2021/03/20 11:57:20;;;;;;;2.42;0.40;;;21.00;35.70;;;;;;5023921;28;20553;-85
2021/03/20 11:59:47;;;;;;;1.20;0.20;;;21.00;35.70;;;;;;5039158;28;20033;-85
2021/03/20 12:02:36;;;;;;;1.42;0.35;;;21.00;35.70;;;;;;5028666;28;20032;-85
2021/03/20 12:05:27;;;;;;;1.58;0.20;;;21.00;35.70;;;;;;5019079;28;20024;-85
2021/03/20 12:08:17;;;;;;;3.58;0.30;;;21.00;35.70;;;;;;5037537;28;20514;-85
2021/03/20 12:11:01;;;;;;;1.47;0.50;;;21.00;35.70;;;;;;5031673;28;20040;-85
2021/03/20 12:13:45;;;;;;;0.70;0.30;;;21.00;35.70;;;;;;5027387;28;20298;-85
2021/03/20 12:16:32;;;;;;;0.70;0.15;;;21.00;35.70;;;;;;5023773;28;20025;-85
2021/03/20 12:19:19;;;;;;;1.65;0.32;;;21.10;35.80;;;;;;5041284;28;20158;-85
2021/03/20 12:22:05;;;;;;;1.73;0.20;;;21.00;35.80;;;;;;5039110;28;20444;-85
2021/03/20 12:24:49;;;;;;;3.88;0.20;;;21.00;35.80;;;;;;5042196;28;20120;-85
2021/03/20 12:27:30;;;;;;;1.92;0.30;;;21.10;35.90;;;;;;5026243;28;20021;-85
2021/03/20 12:30:00;;;;;;;;;;;21.00;35.80;;;;;;5045604;28;20033;-85
2021/03/20 12:32:37;;;;;;;1.05;0.10;;;21.00;35.80;;;;;;5040055;28;19920;-85
2021/03/20 12:35:18;;;;;;;2.05;0.10;;;21.00;35.90;;;;;;5041897;28;20078;-85
2021/03/20 12:38:03;;;;;;;2.73;0.20;;;21.00;35.90;;;;;;5039354;28;20029;-85
2021/03/20 12:40:30;;;;;;;2.05;0.20;;;21.00;35.90;;;;;;5060587;28;20100;-85
2021/03/20 12:43:14;;;;;;;1.60;0.13;;;21.00;36.00;;;;;;5038271;28;20465;-85
2021/03/20 12:45:40;;;;;;;1.08;0.30;;;21.00;35.90;;;;;;5024071;28;20048;-85
2021/03/20 12:48:08;;;;;;;1.20;0.20;;;21.00;35.90;;;;;;5028585;28;20027;-85
2021/03/20 12:50:33;;;;;;;0.88;0.30;;;21.00;35.90;;;;;;5043593;28;20017;-85
2021/03/20 12:52:59;;;;;;;1.85;0.17;;;21.00;35.90;;;;;;5047427;28;20050;-85
2021/03/20 12:55:25;;;;;;;1.27;0.20;;;21.00;36.00;;;;;;5043703;28;20047;-85
2021/03/20 12:57:50;;;;;;;0.43;0.03;;;21.00;36.00;;;;;;5061258;28;20029;-85
2021/03/20 13:00:21;;;;;;;1.58;0.30;;;21.00;36.00;;;;;;5029535;28;20024;-85
2021/03/20 13:02:47;;;;;;;2.50;0.20;;;21.00;36.00;;;;;;5057356;28;20029;-85
2021/03/20 13:05:25;;;;;;;1.42;0.17;;;21.00;36.00;;;;;;5050778;28;20096;-85
2021/03/20 13:07:51;;;;;;;0.75;0.10;;;21.00;36.00;;;;;;5028897;28;20463;-86
2021/03/20 13:10:17;;;;;;;0.70;0.10;;;21.00;36.00;;;;;;5028036;28;21041;-85
2021/03/20 13:12:42;;;;;;;0.75;0.10;;;21.00;36.00;;;;;;5030902;28;20052;-85
2021/03/20 13:15:09;;;;;;;0.70;0.10;;;21.00;36.60;;;;;;5046286;28;20073;-84
2021/03/20 13:17:34;;;;;;;1.60;0.13;;;21.00;36.00;;;;;;5041278;28;20064;-85
2021/03/20 13:20:01;;;;;;;0.22;0.05;;;21.00;36.00;;;;;;5047872;28;20455;-85
2021/03/20 13:22:27;;;;;;;0.80;0.20;;;21.00;36.00;;;;;;5046171;28;20033;-85
2021/03/20 13:24:52;;;;;;;0.95;0.20;;;21.00;36.00;;;;;;5026216;28;20056;-85
2021/03/20 13:27:18;;;;;;;0.57;0.10;;;21.00;36.00;;;;;;5044525;28;20389;-85
2021/03/20 13:29:44;;;;;;;1.02;0.20;;;21.00;36.00;;;;;;5043045;28;20033;-85
2021/03/20 13:32:09;;;;;;;0.70;0.10;;;21.00;36.00;;;;;;5043923;28;20044;-85
2021/03/20 13:34:35;;;;;;;1.77;0.10;;;21.00;36.00;;;;;;5025058;28;20028;-85
2021/03/20 13:37:01;;;;;;;1.77;0.20;;;21.00;36.00;;;;;;5021399;28;20115;-84